aviador You're here:

LFOP Decoded Metar

ROUEN in FRANCE
Report Time2017-08-19 20:00:00
UTC Time2017-08-19 20:26:24
Flight Rules vfr VFR
Wind290° at 06 kt
W.Decomp.*RWY 23: 3.0 kt HW 5.2 kt RCW
RWY 22: 2.1 kt HW 5.6 kt RCW
W.Rank290° ranks 1
Current wind is below 290° avg. (7.4)
Visibility9999 m
Phenomena:N/A
Clouds:N/A
Expected CloudBase > 2,000 ft AGL from Temp-Dew spread
CeilingNone
Temp14°C (ISA 0)
Dew Point09°C (72% RH)
AAT11.6°C
QNH1023 hPa
Density Alt338 ft
Elevation515 ft
Report Wrong Elevation
Raw Report
LFOP 192000Z AUTO 29006KT CAVOK 14/09 Q1023 NOSIG=

Extra information for LFOP:More info

Metar Taf Metar & Taf Last 4 Metars F.Rules Stats Wind Profile Meteogram Temp Stats Airport Information Weather charts Add Link Nearby VenuesMetar ALERT Operation Metar Decoded Social comments